Bgp Supply II — HP6535 — position and weather

sailwx.info

Track history (hours):
 
Tides and Currents Weather Stations Pressure Air Temp Water Temp Dewpoint Dewpoint Depression Visibility Wind Speed Wind Dir Waves Ship Positions

Bgp Supply II

Last reported at 2018-Jun-20 19:52 UTC. Time now 2018-Jun-22 07:18 UTC.
Position N 42°05' E 032°55'.

Length 62 m; draft 4.8 m.

Type: Tug. MMSI: 371583000.

Date/timePositionNaut miles runAvg speedWind from/ knotsBaromVisibWave heightAir tempDewpointWater temp
2018-Jun-20 19:52N 42°05' E 032°55'  
2018-Jun-12 15:22N 35°53' E 014°30'0 0.0
2018-Jun-12 15:00N 35°53' E 014°30'0 0.0
2018-Jun-12 14:30N 35°53' E 014°30'0 0.0
2018-Jun-12 14:00N 35°53' E 014°30'0 0.0
2018-Jun-12 13:30N 35°53' E 014°30'0 0.0
2018-Jun-12 13:00N 35°53' E 014°30'0 0.0
2018-Jun-12 12:30N 35°53' E 014°30'0 0.0
2018-Jun-12 12:00N 35°53' E 014°30'0 0.0
2018-Jun-12 11:30N 35°53' E 014°30'0 0.0
2018-Jun-12 11:00N 35°53' E 014°30'0 0.0
2018-Jun-12 10:30N 35°53' E 014°30'0 0.0
2018-Jun-12 10:00N 35°53' E 014°30'0 0.0
2018-Jun-12 09:30N 35°53' E 014°30'0 0.0
2018-Jun-12 09:00N 35°53' E 014°30'0 0.0
2018-Jun-12 08:30N 35°53' E 014°30'0 0.0
2018-Jun-12 01:26N 35°53' E 014°30'0 0.0
2018-Jun-12 00:59N 35°53' E 014°30'0 0.0
2018-Jun-12 00:30N 35°53' E 014°30'0 0.0
2018-Jun-11 21:32N 35°53' E 014°30'0 0.0
2018-Jun-11 21:30N 35°53' E 014°30'0 0.0
2018-Jun-11 21:00N 35°53' E 014°30'0 0.0
2018-Jun-11 20:30N 35°53' E 014°30'0 0.0
2018-Jun-11 20:00N 35°53' E 014°30'0 0.0
2018-Jun-11 19:30N 35°53' E 014°30'0 0.0
2018-Jun-11 19:00N 35°53' E 014°30'0 0.0
2018-Jun-11 18:30N 35°53' E 014°30'0 0.0
2018-Jun-11 18:00N 35°53' E 014°30'0 0.0
2018-Jun-11 17:30N 35°53' E 014°30'0 0.0
2018-Jun-11 16:59N 35°53' E 014°30'3 6.7
2018-Jun-11 16:30N 35°55' E 014°33'3 6.6
2018-Jun-11 16:00N 35°58' E 014°33'4 8.4
2018-Jun-11 15:30N 36°02' E 014°30'5 8.9
2018-Jun-11 15:00N 36°05' E 014°25'4 9.1
2018-Jun-11 14:30N 36°07' E 014°21'6 9.2
2018-Jun-11 13:52N 36°10' E 014°15'9 9.3
2018-Jun-11 12:53N 36°15' E 014°05'4 9.6
2018-Jun-11 12:30N 36°17' E 014°01'5 9.7
2018-Jun-11 12:00N 36°19' E 013°56'510.1
2018-Jun-11 11:30N 36°22' E 013°51'510.0
2018-Jun-11 11:00N 36°24' E 013°45'5 9.7
2018-Jun-11 10:30N 36°26' E 013°40'5 9.6
2018-Jun-11 09:59N 36°28' E 013°34'5 9.5
2018-Jun-11 09:30N 36°30' E 013°28'5 9.5
2018-Jun-11 09:00N 36°32' E 013°23'5 9.8
2018-Jun-11 08:30N 36°33' E 013°17'5 9.9
2018-Jun-11 08:00N 36°35' E 013°12'6 9.7
2018-Jun-11 07:26N 36°38' E 013°05'4 9.5
2018-Jun-11 07:00N 36°39' E 013°01'5 9.3
2018-Jun-11 06:30N 36°41' E 012°55'5 9.1
2018-Jun-11 06:00N 36°43' E 012°50'  
Track history (hours):
 
Tides and Currents Weather Stations Pressure Air Temp Water Temp Dewpoint Dewpoint Depression Visibility Wind Speed Wind Dir Waves Ship Positions

Bgp Supply II

Last reported at 2018-Jun-20 19:52 UTC. Time now 2018-Jun-22 07:18 UTC.
Position N 42°05' E 032°55'.

Length 62 m; draft 4.8 m.

Type: Tug. MMSI: 371583000.

Date/timePositionNaut miles runAvg speedWind from/ knotsBaromVisibWave heightAir tempDewpointWater temp
2018-Jun-20 19:52N 42°05' E 032°55'  
2018-Jun-12 15:22N 35°53' E 014°30'0 0.0
2018-Jun-12 15:00N 35°53' E 014°30'0 0.0
2018-Jun-12 14:30N 35°53' E 014°30'0 0.0
2018-Jun-12 14:00N 35°53' E 014°30'0 0.0
2018-Jun-12 13:30N 35°53' E 014°30'0 0.0
2018-Jun-12 13:00N 35°53' E 014°30'0 0.0
2018-Jun-12 12:30N 35°53' E 014°30'0 0.0
2018-Jun-12 12:00N 35°53' E 014°30'0 0.0
2018-Jun-12 11:30N 35°53' E 014°30'0 0.0
2018-Jun-12 11:00N 35°53' E 014°30'0 0.0
2018-Jun-12 10:30N 35°53' E 014°30'0 0.0
2018-Jun-12 10:00N 35°53' E 014°30'0 0.0
2018-Jun-12 09:30N 35°53' E 014°30'0 0.0
2018-Jun-12 09:00N 35°53' E 014°30'0 0.0
2018-Jun-12 08:30N 35°53' E 014°30'0 0.0
2018-Jun-12 01:26N 35°53' E 014°30'0 0.0
2018-Jun-12 00:59N 35°53' E 014°30'0 0.0
2018-Jun-12 00:30N 35°53' E 014°30'0 0.0
2018-Jun-11 21:32N 35°53' E 014°30'0 0.0
2018-Jun-11 21:30N 35°53' E 014°30'0 0.0
2018-Jun-11 21:00N 35°53' E 014°30'0 0.0
2018-Jun-11 20:30N 35°53' E 014°30'0 0.0
2018-Jun-11 20:00N 35°53' E 014°30'0 0.0
2018-Jun-11 19:30N 35°53' E 014°30'0 0.0
2018-Jun-11 19:00N 35°53' E 014°30'0 0.0
2018-Jun-11 18:30N 35°53' E 014°30'0 0.0
2018-Jun-11 18:00N 35°53' E 014°30'0 0.0
2018-Jun-11 17:30N 35°53' E 014°30'0 0.0
2018-Jun-11 16:59N 35°53' E 014°30'3 6.7
2018-Jun-11 16:30N 35°55' E 014°33'3 6.6
2018-Jun-11 16:00N 35°58' E 014°33'4 8.4
2018-Jun-11 15:30N 36°02' E 014°30'5 8.9
2018-Jun-11 15:00N 36°05' E 014°25'4 9.1
2018-Jun-11 14:30N 36°07' E 014°21'6 9.2
2018-Jun-11 13:52N 36°10' E 014°15'9 9.3
2018-Jun-11 12:53N 36°15' E 014°05'4 9.6
2018-Jun-11 12:30N 36°17' E 014°01'5 9.7
2018-Jun-11 12:00N 36°19' E 013°56'510.1
2018-Jun-11 11:30N 36°22' E 013°51'510.0
2018-Jun-11 11:00N 36°24' E 013°45'5 9.7
2018-Jun-11 10:30N 36°26' E 013°40'5 9.6
2018-Jun-11 09:59N 36°28' E 013°34'5 9.5
2018-Jun-11 09:30N 36°30' E 013°28'5 9.5
2018-Jun-11 09:00N 36°32' E 013°23'5 9.8
2018-Jun-11 08:30N 36°33' E 013°17'5 9.9
2018-Jun-11 08:00N 36°35' E 013°12'6 9.7
2018-Jun-11 07:26N 36°38' E 013°05'4 9.5
2018-Jun-11 07:00N 36°39' E 013°01'5 9.3
2018-Jun-11 06:30N 36°41' E 012°55'5 9.1
2018-Jun-11 06:00N 36°43' E 012°50'  

Dump ship's entire track history